• Join FlightAware (Why Join?)
  • Login
  • US Flag 
 
12:09PM EST


 

Airport Tracker/Info


-or-


 

Live Flight TrackerFlight Track Log ✈ SWA2058 ✈ 23-Jul-2014 ✈ KDEN - KLAS

Flight Track Log - Related Links

Times and Time Zones

All times are in EDT time to prevent confusion due to time zone crossing. See the SWA2058 flight status page for this flight to view local times or setup timezone preferences in your user account.

Time Position Orientation Groundspeed Altitude Reporting Facility
EDT Latitude Longitude Course Direction KTS MPH feet Rate Location/Type
05:13PM 39.9000 -104.7167 298° West 186 214 6,900  Level Denver TRACON
05:14PM 39.9333 -104.8000 306° West 256 295 8,200 1,680 Climbing Denver TRACON
05:15PM 39.9667 -104.9000 294° West 307 353 10,300 2,460 Climbing Denver TRACON
05:16PM 39.9878 -104.9928 287° West 306 352 13,100 2,520 Climbing Denver Center
05:17PM 40.0064 -105.1114 282° West 330 380 15,300 2,220 Climbing Denver Center
05:18PM 40.0033 -105.2536 268° West 360 414 17,800 2,700 Climbing Denver Center
05:19PM 39.9850 -105.3836 260° West 367 422 20,900 2,580 Climbing Denver Center
05:20PM 39.9764 -105.5267 266° West 361 415 23,200 1,920 Climbing Denver Center
05:21PM 39.9708 -105.6664 267° West 380 437 24,900 1,560 Climbing Denver Center
05:22PM 39.9597 -105.8108 264° West 397 457 26,500 1,920 Climbing Denver Center
05:23PM 39.9206 -105.9478 250° West 403 464 28,900 2,160 Climbing Denver Center
05:24PM 39.8789 -106.0775 247° West 396 456 31,000 1,980 Climbing Denver Center
05:25PM 39.8356 -106.2303 250° West 382 440 33,100 1,500 Climbing Denver Center
05:26PM 39.7967 -106.3606 249° West 384 442 34,100 720 Climbing Denver Center
05:27PM 39.7533 -106.4992 248° West 409 471 34,700 780 Climbing Denver Center
05:28PM 39.7128 -106.6275 248° West 423 487 35,800 1,440 Climbing Denver Center
05:29PM 39.6561 -106.8000 247° West 424 488 37,800 1,020 Climbing Denver Center
05:30PM 39.6167 -106.9317 249° West 414 476 38,000 60 Climbing Denver Center
05:31PM 39.5706 -107.0594 245° Southwest 413 475 38,000  Level Denver Center
05:32PM 39.5175 -107.2208 247° West 404 465 38,000  Level Denver Center
05:33PM 39.4739 -107.3536 247° West 405 466 38,000  Level Denver Center
05:34PM 39.4300 -107.4864 247° West 405 466 38,000  Level Denver Center
05:35PM 39.3850 -107.6236 247° West 406 467 38,000  Level Denver Center
05:36PM 39.3403 -107.7564 247° West 404 465 38,000  Level Denver Center
05:37PM 39.2881 -107.9103 246° West 404 465 38,000  Level Denver Center
05:38PM 39.2442 -108.0411 247° West 399 459 38,000  Level Denver Center
05:39PM 39.1961 -108.1844 247° West 402 463 38,000  Level Denver Center
05:40PM 39.1522 -108.3153 247° West 401 461 38,000  Level Denver Center
05:41PM 39.1061 -108.4481 246° West 423 487 38,000  Level Denver Center
05:42PM 39.0578 -108.5908 246° West 412 474 38,000  Level Denver Center
05:44PM 39.0086 -108.7294 246° West 402 463 38,000  Level Denver Center
05:45PM 38.9633 -108.8583 246° West 399 459 38,000  Level Denver Center
05:46PM 38.9147 -108.9978 246° West 399 459 38,000  Level Denver Center
05:47PM 38.8703 -109.1253 246° West 396 456 38,000  Level Denver Center
05:48PM 38.8208 -109.2642 245° Southwest 397 457 38,000  Level Denver Center
05:49PM 38.7747 -109.3928 245° Southwest 396 456 38,000  Level Denver Center
05:50PM 38.7264 -109.5297 246° West 396 456 38,000  Level Denver Center
05:51PM 38.6872 -109.6361 245° Southwest 389 448 38,000  Level Denver Center
05:52PM 38.6317 -109.7883 245° Southwest 390 449 38,000  Level Denver Center
05:53PM 38.5756 -109.9086 239° Southwest 392 451 38,000  Level Denver Center
05:54PM 38.5258 -110.0333 243° Southwest 392 451 38,000  Level Denver Center
05:55PM 38.4906 -110.1358 246° West 396 456 38,000  Level Salt Lake Center
05:56PM 38.4456 -110.2644 246° West 396 456 38,000  Level Salt Lake Center
05:57PM 38.3892 -110.4183 245° Southwest 396 456 38,000  Level Salt Lake Center
05:58PM 38.3439 -110.5464 246° West 396 456 38,000 -600 Level Salt Lake Center
05:59PM 38.2978 -110.6714 245° Southwest 395 455 36,800 -1,020 Descending Salt Lake Center
06:00PM 38.2525 -110.7964 245° Southwest 391 450 35,900 -960 Descending Salt Lake Center
06:01PM 38.2050 -110.9250 245° Southwest 395 455 34,900 -1,020 Descending Salt Lake Center
06:02PM 38.1608 -111.0522 246° West 397 457 33,900 -1,020 Descending Salt Lake Center
06:03PM 38.1047 -111.2014 244° Southwest 396 456 32,800 -960 Descending Salt Lake Center
06:04PM 38.0603 -111.3289 246° West 396 456 32,000 -420 Descending Salt Lake Center
06:05PM 38.0139 -111.4522 245° Southwest 394 453 32,000  Level Salt Lake Center
06:06PM 37.9661 -111.5711 243° Southwest 384 442 32,000  Level Salt Lake Center
06:07PM 37.9225 -111.6933 246° West 380 437 32,000  Level Salt Lake Center
06:08PM 37.8761 -111.8131 244° Southwest 380 437 32,000  Level Salt Lake Center
06:09PM 37.8222 -111.9569 245° Southwest 380 437 32,000  Level Salt Lake Center
06:10PM 37.7772 -112.0772 245° Southwest 380 437 32,000  Level Salt Lake Center
06:11PM 37.7328 -112.1925 244° Southwest 370 426 32,000  Level Salt Lake Center
06:12PM 37.6875 -112.2892 239° Southwest 332 382 32,000  Level Salt Lake Center
06:13PM 37.6267 -112.3861 232° Southwest 340 391 32,000  Level Salt Lake Center
06:14PM 37.5592 -112.4958 232° Southwest 377 434 32,000  Level Salt Lake Center
06:15PM 37.4894 -112.6092 232° Southwest 396 456 32,000  Level Salt Lake Center
06:16PM 37.4064 -112.7450 232° Southwest 398 458 32,000 -300 Level Salt Lake Center
06:17PM 37.3381 -112.8581 233° Southwest 399 459 31,400 -780 Descending Salt Lake Center
06:19PM 37.2717 -112.9669 233° Southwest 395 455 30,400 -960 Descending Salt Lake Center
06:20PM 37.2031 -113.0775 232° Southwest 395 455 29,500 -960 Descending Salt Lake Center
06:21PM 37.1325 -113.1931 233° Southwest 408 470 28,500 -1,020 Descending Salt Lake Center
06:22PM 37.0628 -113.3050 232° Southwest 409 471 27,500 -960 Descending Salt Lake Center
06:23PM 36.9942 -113.4150 232° Southwest 406 467 26,500 -1,080 Descending Salt Lake Center
06:24PM 36.9164 -113.5492 234° Southwest 402 463 25,300 -1,080 Descending Salt Lake Center
06:25PM 36.8536 -113.6625 235° Southwest 400 460 24,300 -1,020 Descending Salt Lake Center
06:26PM 36.7931 -113.7731 236° Southwest 392 451 23,300 -1,020 Descending Salt Lake Center
06:27PM 36.7328 -113.8808 235° Southwest 383 441 22,300 -1,440 Descending Salt Lake Center
06:28PM 36.6481 -114.0286 234° Southwest 377 434 19,900 -1,860 Descending Los Angeles Center
06:29PM 36.5914 -114.1314 236° Southwest 365 420 17,900 -1,920 Descending Los Angeles Center
06:30PM 36.5353 -114.2294 235° Southwest 355 409 16,000 -2,040 Descending Los Angeles Center
06:31PM 36.4933 -114.3147 239° Southwest 344 396 14,300 -1,860 Descending Los Angeles Center
06:31PM 36.4825 -114.3231 212° Southwest 346 398 14,100 -1,620 Descending Los Angeles Center
06:32PM 36.4197 -114.4350 235° Southwest 334 384 12,200 -1,560 Descending Los Angeles Center
06:33PM 36.4078 -114.4647 243° Southwest 324 373 12,000 -480 Descending Los Angeles Center
06:33PM 36.3642 -114.4928 207° Southwest 294 338 11,800 -720 Descending Los Angeles Center
06:34PM 36.2711 -114.5217 194° South 295 339 10,800 -900 Descending Los Angeles Center
06:35PM 36.1897 -114.5442 193° South 300 345 9,900 -660 Descending Los Angeles Center
06:36PM 36.1367 -114.6003 221° Southwest 282 325 9,500 -600 Descending Los Angeles Center
06:37PM 36.0997 -114.6717 237° Southwest 255 293 8,700 -900 Descending Los Angeles Center
06:38PM 36.0742 -114.7456 247° West 225 259 7,800 -1,020 Descending Los Angeles Center
06:39PM 36.0739 -114.8122 270° West 196 226 6,900 -960 Descending Los Angeles Center
06:40PM 36.0725 -114.8253 263° West 212 244 6,700 -780 Descending Los Angeles Center
06:41PM 36.0731 -114.8889 271° West 195 224 5,900 -1,080 Descending Los Angeles Center
06:41PM 36.0733 -114.9481 270° West 183 211 4,700 -1,260 Descending Los Angeles Center
06:42PM 36.0736 -114.9578 272° West 190 219 4,600 -1,020 Descending Los Angeles Center
06:42PM 36.0733 -115.0067 270° West 182 209 3,800 -1,020 Descending Los Angeles Center
06:43PM 36.0739 -115.0247 272° West 184 212 3,600 -900 Descending Los Angeles Center
06:43PM 36.0742 -115.0597 271° West 173 199 3,000 -900 Descending Los Angeles Center
06:44PM 36.0736 -115.0797 268° West 163 188 2,700 -660 Descending Los Angeles Center
06:44PM 36.0733 -115.1158 269° West 144 166 2,300 -720 Descending Los Angeles Center
06:45PM 36.0731 -115.1297 269° West 152 175 2,000 -900 Descending Los Angeles Center
06:47PM 36.0667 -115.1500 219° Southwest  Level FlightAware Approximate